createdAt,value
2022-12-10T00:01:29.404Z,25.95
2022-12-10T00:03:30.850Z,25.33
2022-12-10T00:05:35.174Z,26.27
2022-12-10T00:07:36.652Z,25.75
2022-12-10T00:09:39.358Z,27.17
2022-12-10T00:11:41.171Z,24.35
2022-12-10T00:13:44.487Z,24.88
2022-12-10T00:15:45.915Z,24.40
2022-12-10T00:17:47.383Z,26.05
2022-12-10T00:19:48.810Z,25.30
2022-12-10T00:21:50.329Z,25.30
2022-12-10T00:23:52.330Z,25.67
2022-12-10T00:25:53.784Z,26.98
2022-12-10T00:27:55.288Z,26.45
2022-12-10T00:29:56.741Z,25.95
2022-12-10T00:31:58.202Z,25.05
2022-12-10T00:34:02.907Z,26.52
2022-12-10T00:36:14.034Z,25.63
2022-12-10T00:38:15.553Z,25.67
2022-12-10T00:40:17.118Z,25.40
2022-12-10T00:42:18.590Z,24.67
2022-12-10T00:44:20.041Z,24.92
2022-12-10T00:46:21.565Z,25.23
2022-12-10T00:48:23.166Z,25.55
2022-12-10T00:50:24.621Z,23.98
2022-12-10T00:52:26.126Z,25.20
2022-12-10T00:54:27.589Z,25.15
2022-12-10T00:56:33.256Z,25.35
2022-12-10T00:58:36.306Z,25.02
2022-12-10T01:00:37.805Z,24.75
2022-12-10T01:02:39.280Z,26.33
2022-12-10T01:04:40.728Z,24.48
2022-12-10T01:06:54.195Z,24.75
2022-12-10T01:08:58.489Z,24.80
2022-12-10T01:10:59.948Z,25.52
2022-12-10T01:13:07.560Z,25.17
2022-12-10T01:15:09.631Z,25.98
2022-12-10T01:17:11.130Z,25.90
2022-12-10T01:19:13.035Z,25.80
2022-12-10T01:21:20.472Z,25.38
2022-12-10T01:23:21.910Z,25.10
2022-12-10T01:25:23.420Z,26.50
2022-12-10T01:27:24.887Z,25.88
2022-12-10T01:29:27.609Z,24.33
2022-12-10T01:31:35.377Z,25.35
2022-12-10T01:33:37.568Z,25.23
2022-12-10T01:35:39.109Z,25.13
2022-12-10T01:37:40.585Z,27.73
2022-12-10T01:39:42.043Z,25.77
2022-12-10T01:41:50.090Z,24.40
2022-12-10T01:44:09.590Z,24.75
2022-12-10T01:46:11.042Z,23.33
2022-12-10T01:48:12.740Z,25.45
2022-12-10T01:50:14.310Z,23.98
2022-12-10T01:52:15.875Z,24.67
2022-12-10T01:54:26.711Z,24.30
2022-12-10T01:56:28.943Z,23.90
2022-12-10T01:58:31.026Z,24.27
2022-12-10T02:00:38.675Z,23.83
2022-12-10T02:02:53.369Z,25.60
2022-12-10T02:05:14.131Z,23.63
2022-12-10T02:07:27.615Z,24.55
2022-12-10T02:09:35.323Z,23.25
2022-12-10T02:11:56.474Z,23.58
2022-12-10T02:14:06.454Z,23.13
2022-12-10T02:16:41.141Z,23.13
2022-12-10T02:19:03.823Z,22.25
2022-12-10T02:21:13.239Z,23.77
2022-12-10T02:23:22.754Z,23.70
2022-12-10T02:25:31.359Z,24.08
2022-12-10T02:27:55.562Z,22.15
2022-12-10T02:30:00.468Z,24.35
2022-12-10T02:32:21.406Z,22.88
2022-12-10T02:34:26.082Z,21.58
2022-12-10T02:36:32.885Z,22.05
2022-12-10T02:38:38.155Z,22.90
2022-12-10T02:40:44.302Z,23.23
2022-12-10T02:42:49.552Z,23.00
2022-12-10T02:44:53.120Z,22.45
2022-12-10T02:46:57.684Z,21.92
2022-12-10T02:49:01.909Z,20.83
2022-12-10T02:51:03.575Z,22.33
2022-12-10T02:53:05.112Z,20.98
2022-12-10T02:55:06.818Z,20.75
2022-12-10T02:57:21.230Z,21.63
2022-12-10T02:59:34.089Z,19.38
2022-12-10T03:01:58.804Z,20.85
2022-12-10T03:04:23.895Z,20.48
2022-12-10T03:06:43.177Z,20.52
2022-12-10T03:09:02.397Z,20.85
2022-12-10T03:11:27.051Z,22.20
2022-12-10T03:13:33.492Z,20.83
2022-12-10T03:15:38.515Z,21.75
2022-12-10T03:17:42.663Z,21.85
2022-12-10T03:19:48.818Z,20.38
2022-12-10T03:21:52.450Z,21.23
2022-12-10T03:23:53.978Z,20.85
2022-12-10T03:25:55.672Z,20.45
2022-12-10T03:27:59.903Z,21.75
2022-12-10T03:30:01.766Z,20.33
2022-12-10T03:32:04.004Z,20.88
2022-12-10T03:34:07.091Z,20.83
2022-12-10T03:36:09.398Z,21.13
2022-12-10T03:38:11.194Z,20.75
2022-12-10T03:40:13.626Z,22.38
2022-12-10T03:42:15.299Z,22.10
2022-12-10T03:44:29.588Z,20.52
2022-12-10T03:46:32.642Z,21.25
2022-12-10T03:48:34.065Z,20.88
2022-12-10T03:50:35.555Z,21.13
2022-12-10T03:52:37.220Z,21.30
2022-12-10T03:54:38.702Z,20.92
2022-12-10T03:56:40.156Z,21.30
2022-12-10T03:58:41.599Z,21.25
2022-12-10T04:00:43.196Z,20.25
2022-12-10T04:02:44.755Z,21.08
2022-12-10T04:04:46.374Z,22.90
2022-12-10T04:06:47.989Z,21.10
2022-12-10T04:08:51.901Z,21.42
2022-12-10T04:11:10.172Z,21.17
2022-12-10T04:13:29.994Z,21.55
2022-12-10T04:15:49.792Z,21.58
2022-12-10T04:17:51.237Z,20.80
2022-12-10T04:19:52.804Z,22.02
2022-12-10T04:22:12.612Z,22.02
2022-12-10T04:24:33.805Z,21.23
2022-12-10T04:26:53.133Z,21.45
2022-12-10T04:28:54.575Z,21.67
2022-12-10T04:30:56.108Z,20.52
2022-12-10T04:32:57.581Z,21.02
2022-12-10T04:34:59.502Z,22.35
2022-12-10T04:37:02.002Z,20.92
2022-12-10T04:39:04.035Z,21.00
2022-12-10T04:41:16.250Z,20.90
2022-12-10T04:43:17.696Z,20.38
2022-12-10T04:45:19.214Z,19.65
2022-12-10T04:47:20.968Z,20.02
2022-12-10T04:49:22.665Z,19.60
2022-12-10T04:51:24.143Z,20.33
2022-12-10T04:53:25.612Z,20.95
2022-12-10T04:55:27.094Z,21.33
2022-12-10T04:57:28.532Z,20.60
2022-12-10T04:59:30.019Z,20.90
2022-12-10T05:01:31.904Z,20.77
2022-12-10T05:03:33.499Z,20.27
2022-12-10T05:05:35.804Z,19.02
2022-12-10T05:07:37.278Z,20.23
2022-12-10T05:09:39.015Z,21.20
2022-12-10T05:11:40.655Z,20.80
2022-12-10T05:13:42.669Z,20.50
2022-12-10T05:15:44.151Z,19.73
2022-12-10T05:17:45.680Z,20.48
2022-12-10T05:19:47.128Z,19.80
2022-12-10T05:22:07.298Z,19.35
2022-12-10T05:24:08.843Z,19.55
2022-12-10T05:26:11.826Z,20.48
2022-12-10T05:28:13.250Z,18.92
2022-12-10T05:30:14.778Z,19.73
2022-12-10T05:32:16.236Z,19.48
2022-12-10T05:34:17.673Z,18.98
2022-12-10T05:36:24.137Z,20.20
2022-12-10T05:38:26.591Z,19.45
2022-12-10T05:40:28.052Z,19.35
2022-12-10T05:42:29.489Z,20.35
2022-12-10T05:44:30.957Z,19.80
2022-12-10T05:46:34.735Z,19.23
2022-12-10T05:48:37.073Z,21.23
2022-12-10T05:50:38.955Z,19.95
2022-12-10T05:52:40.395Z,21.33
2022-12-10T05:54:41.961Z,19.77
2022-12-10T05:56:43.421Z,20.15
2022-12-10T05:58:47.069Z,21.25
2022-12-10T06:00:48.511Z,20.85
2022-12-10T06:02:53.172Z,19.98
2022-12-10T06:04:54.716Z,21.25
2022-12-10T06:06:56.187Z,19.48
2022-12-10T06:08:58.425Z,20.40
2022-12-10T06:11:11.670Z,20.73
2022-12-10T06:13:13.104Z,20.75
2022-12-10T06:15:14.543Z,20.38
2022-12-10T06:17:16.017Z,19.63
2022-12-10T06:19:17.461Z,21.67
2022-12-10T06:21:19.985Z,21.75
2022-12-10T06:23:21.424Z,20.13
2022-12-10T06:25:22.930Z,20.45
2022-12-10T06:27:24.379Z,21.38
2022-12-10T06:29:25.847Z,22.40
2022-12-10T06:31:27.452Z,20.48
2022-12-10T06:33:28.994Z,21.40
2022-12-10T06:35:30.514Z,21.80
2022-12-10T06:37:31.960Z,20.13
2022-12-10T06:39:33.416Z,19.70
2022-12-10T06:41:34.892Z,20.83
2022-12-10T06:43:37.094Z,20.38
2022-12-10T06:45:42.917Z,21.15
2022-12-10T06:47:44.396Z,20.30
2022-12-10T06:49:45.843Z,20.95
2022-12-10T06:51:48.518Z,20.90
2022-12-10T06:53:49.965Z,18.90
2022-12-10T06:55:51.489Z,20.77
2022-12-10T06:57:53.986Z,19.83
2022-12-10T06:59:55.431Z,20.00
2022-12-10T07:01:57.054Z,20.95
2022-12-10T07:03:58.816Z,19.08
2022-12-10T07:06:02.020Z,20.23
2022-12-10T07:08:03.616Z,20.20
2022-12-10T07:10:06.986Z,20.17
2022-12-10T07:12:08.581Z,21.17
2022-12-10T07:14:16.327Z,21.27
2022-12-10T07:16:23.486Z,20.45
2022-12-10T07:18:25.236Z,20.88
2022-12-10T07:20:26.691Z,20.52
2022-12-10T07:22:28.149Z,20.92
2022-12-10T07:24:29.622Z,21.13
2022-12-10T07:26:33.188Z,20.33
2022-12-10T07:28:38.401Z,19.98
2022-12-10T07:30:43.200Z,20.88
2022-12-10T07:32:44.647Z,20.65
2022-12-10T07:34:46.126Z,21.33
2022-12-10T07:36:47.577Z,19.60
2022-12-10T07:38:49.552Z,21.17
2022-12-10T07:40:52.200Z,21.05
2022-12-10T07:42:53.684Z,19.88
2022-12-10T07:44:55.241Z,20.70
2022-12-10T07:46:57.110Z,20.88
2022-12-10T07:49:01.409Z,20.90
2022-12-10T07:51:03.424Z,20.17
2022-12-10T07:53:04.879Z,20.35
2022-12-10T07:55:06.559Z,19.33
2022-12-10T07:57:08.086Z,20.85
2022-12-10T07:59:09.832Z,20.70
2022-12-10T08:01:20.143Z,20.92
2022-12-10T08:03:21.708Z,21.73
2022-12-10T08:05:23.202Z,20.23
2022-12-10T08:07:24.675Z,20.25
2022-12-10T08:09:26.119Z,20.38
2022-12-10T08:11:28.475Z,21.10
2022-12-10T08:13:30.261Z,19.70
2022-12-10T08:15:32.179Z,20.55
2022-12-10T08:17:36.158Z,21.25
2022-12-10T08:19:37.618Z,19.80
2022-12-10T08:21:39.110Z,19.20
2022-12-10T08:23:41.528Z,19.80
2022-12-10T08:25:42.999Z,20.30
2022-12-10T08:27:44.515Z,20.15
2022-12-10T08:29:45.951Z,20.20
2022-12-10T08:31:47.536Z,19.90
2022-12-10T08:33:49.078Z,20.08
2022-12-10T08:35:50.546Z,20.13
2022-12-10T08:37:52.070Z,21.00
2022-12-10T08:39:53.527Z,19.90
2022-12-10T08:41:54.973Z,20.83
2022-12-10T08:43:56.456Z,20.02
2022-12-10T08:45:59.458Z,20.67
2022-12-10T08:48:02.916Z,20.88
2022-12-10T08:50:04.914Z,19.83
2022-12-10T08:52:06.452Z,20.25
2022-12-10T08:54:07.896Z,20.38
2022-12-10T08:56:09.424Z,21.48
2022-12-10T08:58:11.350Z,21.25
2022-12-10T09:00:14.682Z,22.23
2022-12-10T09:02:16.236Z,20.17
2022-12-10T09:04:17.705Z,21.90
2022-12-10T09:06:21.484Z,20.80
2022-12-10T09:08:22.972Z,20.92
2022-12-10T09:10:24.499Z,21.15
2022-12-10T09:12:25.992Z,20.63
2022-12-10T09:14:28.279Z,21.27
2022-12-10T09:16:37.514Z,20.50
2022-12-10T09:18:39.425Z,20.52
2022-12-10T09:20:40.874Z,20.83
2022-12-10T09:22:42.318Z,21.48
2022-12-10T09:24:43.794Z,20.40
2022-12-10T09:26:45.267Z,20.90
2022-12-10T09:28:48.106Z,21.17
2022-12-10T09:31:00.214Z,19.73
2022-12-10T09:33:02.222Z,20.45
2022-12-10T09:35:04.869Z,18.95
2022-12-10T09:37:06.350Z,18.52
2022-12-10T09:39:07.782Z,18.33
2022-12-10T09:41:12.190Z,18.35
2022-12-10T09:43:22.801Z,18.23
2022-12-10T09:45:53.499Z,18.85
2022-12-10T09:48:13.359Z,18.92
2022-12-10T09:50:22.194Z,19.40
2022-12-10T09:54:33.681Z,18.55
2022-12-10T09:56:40.834Z,19.55
2022-12-10T09:58:42.386Z,20.13
2022-12-10T10:00:47.788Z,20.10
2022-12-10T10:02:51.891Z,18.15
2022-12-10T10:05:10.797Z,20.23
2022-12-10T10:07:21.524Z,20.50
2022-12-10T10:09:23.003Z,19.45
2022-12-10T10:11:29.535Z,19.60
2022-12-10T10:13:41.276Z,20.63
2022-12-10T10:15:45.929Z,17.15
2022-12-10T10:17:50.498Z,17.77
2022-12-10T10:19:51.929Z,16.85
2022-12-10T10:21:53.430Z,17.73
2022-12-10T10:23:55.981Z,16.42
2022-12-10T10:25:57.510Z,16.38
2022-12-10T10:27:59.151Z,17.10
2022-12-10T10:30:04.678Z,15.63
2022-12-10T10:32:24.204Z,17.60
2022-12-10T10:34:25.634Z,18.75
2022-12-10T10:36:33.822Z,17.35
2022-12-10T10:38:35.892Z,18.27
2022-12-10T10:40:37.311Z,16.63
2022-12-10T10:42:42.244Z,17.45
2022-12-10T10:44:43.979Z,14.52
2022-12-10T10:46:48.469Z,14.15
2022-12-10T10:48:50.335Z,14.93
2022-12-10T10:51:11.578Z,15.50
2022-12-10T10:53:31.507Z,16.27
2022-12-10T10:55:36.695Z,16.42
2022-12-10T10:57:38.645Z,14.10
2022-12-10T10:59:40.437Z,14.93
2022-12-10T11:01:54.101Z,14.02
2022-12-10T11:03:59.185Z,13.77
2022-12-10T11:06:01.203Z,15.43
2022-12-10T11:08:14.051Z,14.77
2022-12-10T11:10:25.808Z,12.88
2022-12-10T11:12:36.647Z,14.27
2022-12-10T11:14:46.846Z,13.98
2022-12-10T11:16:48.378Z,14.60
2022-12-10T11:19:05.158Z,13.82
2022-12-10T11:21:12.629Z,17.73
2022-12-10T11:23:14.554Z,16.20
2022-12-10T11:25:16.118Z,15.48
2022-12-10T11:27:40.217Z,14.57
2022-12-10T11:30:05.710Z,13.75
2022-12-10T11:32:22.306Z,14.63
2022-12-10T11:34:49.934Z,15.48
2022-12-10T11:37:12.503Z,14.73
2022-12-10T11:39:31.531Z,14.45
2022-12-10T11:42:21.477Z,14.88
2022-12-10T11:44:31.009Z,11.95
2022-12-10T11:46:51.081Z,13.98
2022-12-10T11:49:14.363Z,15.48
2022-12-10T11:51:35.543Z,13.32
2022-12-10T11:54:18.474Z,14.10
2022-12-10T11:56:44.812Z,12.55
2022-12-10T11:59:00.304Z,13.35
2022-12-10T12:01:29.922Z,13.70
2022-12-10T12:03:38.458Z,13.70
2022-12-10T12:05:42.615Z,14.77
2022-12-10T12:08:00.147Z,15.60
2022-12-10T12:10:31.980Z,15.50
2022-12-10T12:12:45.830Z,15.60
2022-12-10T12:14:56.534Z,15.90
2022-12-10T12:17:16.177Z,15.43
2022-12-10T12:19:26.411Z,16.27
2022-12-10T12:21:28.249Z,16.10
2022-12-10T12:24:04.846Z,16.25
2022-12-10T12:26:28.455Z,15.88
2022-12-10T12:28:37.944Z,15.82
2022-12-10T12:30:42.658Z,15.55
2022-12-10T12:33:02.732Z,17.65
2022-12-10T12:35:28.247Z,16.45
2022-12-10T12:37:58.899Z,16.17
2022-12-10T12:40:16.237Z,16.88
2022-12-10T12:42:34.691Z,18.65
2022-12-10T12:45:03.817Z,16.60
2022-12-10T12:47:37.338Z,21.90
2022-12-10T12:49:42.438Z,16.95
2022-12-10T12:52:21.941Z,15.60
2022-12-10T12:54:23.708Z,16.67
2022-12-10T12:57:05.241Z,17.17
2022-12-10T12:59:37.587Z,15.55
2022-12-10T13:01:45.063Z,16.67
2022-12-10T13:03:49.324Z,18.35
2022-12-10T13:05:51.339Z,17.63
2022-12-10T13:08:20.999Z,17.17
2022-12-10T13:10:26.282Z,17.10
2022-12-10T13:12:33.788Z,17.55
2022-12-10T13:15:02.667Z,15.95
2022-12-10T13:17:25.951Z,17.80
2022-12-10T13:19:30.158Z,15.88
2022-12-10T13:21:32.878Z,16.08
2022-12-10T13:23:52.104Z,15.93
2022-12-10T13:25:55.950Z,17.73
2022-12-10T13:28:16.612Z,16.98
2022-12-10T13:30:38.308Z,16.90
2022-12-10T13:32:39.714Z,16.48
2022-12-10T13:34:41.284Z,15.52
2022-12-10T13:36:49.662Z,15.57
2022-12-10T13:39:07.813Z,13.85
2022-12-10T13:41:27.968Z,15.90
2022-12-10T13:43:53.919Z,15.43
2022-12-10T13:46:41.530Z,16.65
2022-12-10T13:48:42.999Z,16.58
2022-12-10T13:50:59.628Z,16.08
2022-12-10T13:53:16.312Z,16.40
2022-12-10T13:55:24.081Z,17.10
2022-12-10T13:57:47.129Z,17.17
2022-12-10T13:59:49.400Z,17.77
2022-12-10T14:02:27.938Z,17.73
2022-12-10T14:06:51.883Z,16.67
2022-12-10T14:09:18.614Z,17.02
2022-12-10T14:11:24.518Z,17.92
2022-12-10T14:13:37.478Z,18.33
2022-12-10T14:15:39.210Z,17.38
2022-12-10T14:17:43.786Z,18.52
2022-12-10T14:19:47.978Z,18.38
2022-12-10T14:21:49.620Z,17.85
2022-12-10T14:23:56.287Z,17.88
2022-12-10T14:25:58.266Z,17.17
2022-12-10T14:27:59.883Z,17.42
2022-12-10T14:30:23.070Z,17.58
2022-12-10T14:32:33.171Z,17.25
2022-12-10T14:34:34.641Z,18.50
2022-12-10T14:36:44.640Z,18.50
2022-12-10T14:38:48.609Z,18.15
2022-12-10T14:40:50.454Z,18.30
2022-12-10T14:43:03.420Z,17.90
2022-12-10T14:45:06.579Z,17.38
2022-12-10T14:47:16.724Z,18.10
2022-12-10T14:49:23.101Z,18.17
2022-12-10T14:51:27.433Z,17.63
2022-12-10T14:53:29.534Z,18.58
2022-12-10T14:55:31.095Z,18.23
2022-12-10T14:57:39.125Z,18.77
2022-12-10T15:00:03.975Z,17.98
2022-12-10T15:02:21.362Z,17.08
2022-12-10T15:04:27.027Z,18.08
2022-12-10T15:06:29.118Z,18.13
2022-12-10T15:08:30.764Z,17.35
2022-12-10T15:10:39.510Z,17.35
2022-12-10T15:14:48.673Z,16.60
2022-12-10T15:16:50.527Z,17.58
2022-12-10T15:18:52.120Z,17.83
2022-12-10T15:21:03.559Z,18.10
2022-12-10T15:23:26.310Z,17.98
2022-12-10T15:25:29.971Z,16.77
2022-12-10T15:27:31.467Z,19.10
2022-12-10T15:29:35.577Z,17.27
2022-12-10T15:31:37.179Z,17.80
2022-12-10T15:33:42.144Z,17.10
2022-12-10T15:35:43.609Z,17.63
2022-12-10T15:37:51.722Z,18.33
2022-12-10T15:39:59.122Z,17.02
2022-12-10T15:42:05.204Z,17.52
2022-12-10T15:44:17.514Z,17.48
2022-12-10T15:46:19.620Z,18.08
2022-12-10T15:48:21.683Z,17.13
2022-12-10T15:50:23.202Z,16.40
2022-12-10T15:52:30.463Z,16.77
2022-12-10T15:54:37.427Z,17.30
2022-12-10T15:56:38.941Z,17.55
2022-12-10T15:58:41.933Z,17.08
2022-12-10T16:00:47.789Z,17.13
2022-12-10T16:03:05.224Z,16.30
2022-12-10T16:05:22.073Z,16.88
2022-12-10T16:07:23.747Z,16.35
2022-12-10T16:09:25.242Z,16.00
2022-12-10T16:11:27.011Z,16.50
2022-12-10T16:13:32.904Z,18.10
2022-12-10T16:15:42.264Z,16.70
2022-12-10T16:17:43.861Z,16.40
2022-12-10T16:19:45.672Z,16.45
2022-12-10T16:21:49.386Z,16.85
2022-12-10T16:23:50.912Z,17.02
2022-12-10T16:25:52.562Z,15.95
2022-12-10T16:27:54.124Z,16.52
2022-12-10T16:29:55.573Z,17.83
2022-12-10T16:31:57.085Z,16.63
2022-12-10T16:33:58.683Z,17.90
2022-12-10T16:36:03.014Z,17.40
2022-12-10T16:38:10.225Z,16.95
2022-12-10T16:40:14.570Z,17.97
2022-12-10T16:42:16.311Z,18.90
2022-12-10T16:44:17.759Z,17.98
2022-12-10T16:46:19.356Z,16.80
2022-12-10T16:48:21.546Z,17.65
2022-12-10T16:50:23.405Z,16.83
2022-12-10T16:52:24.920Z,17.52
2022-12-10T16:54:27.123Z,16.95
2022-12-10T16:56:29.178Z,15.95
2022-12-10T16:58:30.636Z,17.80
2022-12-10T17:00:32.101Z,16.50
2022-12-10T17:02:33.707Z,16.70
2022-12-10T17:04:35.306Z,17.08
2022-12-10T17:06:36.807Z,15.98
2022-12-10T17:08:38.294Z,16.70
2022-12-10T17:10:58.083Z,17.33
2022-12-10T17:12:59.580Z,17.02
2022-12-10T17:15:02.027Z,17.23
2022-12-10T17:17:04.604Z,16.92
2022-12-10T17:19:06.061Z,16.85
2022-12-10T17:21:07.590Z,16.65
2022-12-10T17:23:09.034Z,17.60
2022-12-10T17:25:10.610Z,17.08
2022-12-10T17:27:16.280Z,17.15
2022-12-10T17:29:26.703Z,15.88
2022-12-10T17:31:28.207Z,16.77
2022-12-10T17:33:29.687Z,16.08
2022-12-10T17:35:31.220Z,17.33
2022-12-10T17:37:34.014Z,16.90
2022-12-10T17:39:35.453Z,15.10
2022-12-10T17:41:38.659Z,16.73
2022-12-10T17:43:40.109Z,16.40
2022-12-10T17:45:42.628Z,16.17
2022-12-10T17:47:45.160Z,15.30
2022-12-10T17:49:46.605Z,17.52
2022-12-10T17:51:48.129Z,16.98
2022-12-10T17:53:49.684Z,16.30
2022-12-10T17:55:56.423Z,16.90
2022-12-10T17:57:59.293Z,17.00
2022-12-10T18:00:00.865Z,16.85
2022-12-10T18:02:02.628Z,18.10
2022-12-10T18:04:04.272Z,17.38
2022-12-10T18:06:13.909Z,18.42
2022-12-10T18:08:18.917Z,17.10
2022-12-10T18:10:27.047Z,16.83
2022-12-10T18:12:28.630Z,18.38
2022-12-10T18:14:30.114Z,17.58
2022-12-10T18:16:34.345Z,17.98
2022-12-10T18:18:35.979Z,17.27
2022-12-10T18:20:40.091Z,18.30
2022-12-10T18:22:41.634Z,18.30
2022-12-10T18:24:43.193Z,19.23
2022-12-10T18:26:45.045Z,18.45
2022-12-10T18:28:55.694Z,16.77
2022-12-10T18:31:02.639Z,17.95
2022-12-10T18:33:04.351Z,18.15
2022-12-10T18:35:06.151Z,18.33
2022-12-10T18:37:10.560Z,18.90
2022-12-10T18:39:17.456Z,18.58
2022-12-10T18:41:19.505Z,28.02
2022-12-10T18:43:20.996Z,21.83
2022-12-10T18:45:22.476Z,17.92
2022-12-10T18:47:23.949Z,18.58
2022-12-10T18:49:25.956Z,19.63
2022-12-10T18:51:27.504Z,19.95
2022-12-10T18:53:29.010Z,18.85
2022-12-10T18:55:30.562Z,17.45
2022-12-10T18:57:35.419Z,19.63
2022-12-10T18:59:40.914Z,19.10
2022-12-10T19:01:42.602Z,18.92
2022-12-10T19:03:48.421Z,18.17
2022-12-10T19:05:50.740Z,18.35
2022-12-10T19:07:52.217Z,18.95
2022-12-10T19:09:54.134Z,18.08
2022-12-10T19:11:55.629Z,17.95
2022-12-10T19:13:57.264Z,17.75
2022-12-10T19:15:59.390Z,17.55
2022-12-10T19:18:03.628Z,18.42
2022-12-10T19:20:07.057Z,17.10
2022-12-10T19:22:08.519Z,17.98
2022-12-10T19:24:11.858Z,17.45
2022-12-10T19:26:35.575Z,17.27
2022-12-10T19:28:37.038Z,17.48
2022-12-10T19:30:38.739Z,17.15
2022-12-10T19:32:40.202Z,16.25
2022-12-10T19:34:42.026Z,16.50
2022-12-10T19:36:43.984Z,18.17
2022-12-10T19:38:45.897Z,17.95
2022-12-10T19:40:47.486Z,17.73
2022-12-10T19:42:49.479Z,18.05
2022-12-10T19:44:51.004Z,18.25
2022-12-10T19:46:52.540Z,17.35
2022-12-10T19:48:54.139Z,17.30
2022-12-10T19:50:55.604Z,16.63
2022-12-10T19:52:57.382Z,16.92
2022-12-10T19:54:58.845Z,16.45
2022-12-10T19:57:00.485Z,17.20
2022-12-10T19:59:14.530Z,16.75
2022-12-10T20:01:17.141Z,16.42
2022-12-10T20:03:18.947Z,16.98
2022-12-10T20:05:21.257Z,16.80
2022-12-10T20:07:22.898Z,16.60
2022-12-10T20:09:27.402Z,17.05
2022-12-10T20:11:29.723Z,16.55
2022-12-10T20:13:31.171Z,16.98
2022-12-10T20:15:33.818Z,16.83
2022-12-10T20:17:35.383Z,17.02
2022-12-10T20:19:36.994Z,15.77
2022-12-10T20:21:38.499Z,16.42
2022-12-10T20:23:40.655Z,15.88
2022-12-10T20:25:45.213Z,16.33
2022-12-10T20:27:47.221Z,15.15
2022-12-10T20:29:48.756Z,15.93
2022-12-10T20:31:52.622Z,15.70
2022-12-10T20:33:54.139Z,15.48
2022-12-10T20:35:57.215Z,15.95
2022-12-10T20:37:58.683Z,16.08
2022-12-10T20:40:29.624Z,16.33
2022-12-10T20:42:21.638Z,15.45
2022-12-10T20:44:24.410Z,15.90
2022-12-10T20:46:30.571Z,15.80
2022-12-10T20:48:32.036Z,14.75
2022-12-10T20:50:33.509Z,17.17
2022-12-10T20:52:36.578Z,15.70
2022-12-10T20:54:38.091Z,15.70
2022-12-10T20:56:39.943Z,15.82
2022-12-10T20:58:42.130Z,15.90
2022-12-10T21:00:43.630Z,16.15
2022-12-10T21:02:45.229Z,15.70
2022-12-10T21:04:46.713Z,15.93
2022-12-10T21:06:48.296Z,15.20
2022-12-10T21:08:50.158Z,16.10
2022-12-10T21:10:51.680Z,16.02
2022-12-10T21:12:53.164Z,15.23
2022-12-10T21:15:00.806Z,14.80
2022-12-10T21:17:07.287Z,15.73
2022-12-10T21:19:11.513Z,15.23
2022-12-10T21:21:14.428Z,15.00
2022-12-10T21:23:19.163Z,16.25
2022-12-10T21:25:20.620Z,15.60
2022-12-10T21:27:22.083Z,14.60
2022-12-10T21:29:25.159Z,15.57
2022-12-10T21:31:26.778Z,15.15
2022-12-10T21:33:28.446Z,14.93
2022-12-10T21:35:31.844Z,15.48
2022-12-10T21:37:33.287Z,15.88
2022-12-10T21:39:34.724Z,15.55
2022-12-10T21:41:54.576Z,16.38
2022-12-10T21:43:56.378Z,15.80
2022-12-10T21:45:57.854Z,15.45
2022-12-10T21:48:01.223Z,15.98
2022-12-10T21:50:02.996Z,14.52
2022-12-10T21:52:04.743Z,15.20
2022-12-10T21:54:06.858Z,15.30
2022-12-10T21:56:09.924Z,15.20
2022-12-10T21:58:12.436Z,14.68
2022-12-10T22:00:15.350Z,14.27
2022-12-10T22:02:16.873Z,15.05
2022-12-10T22:04:18.306Z,14.20
2022-12-10T22:06:24.509Z,14.88
2022-12-10T22:08:26.050Z,14.85
2022-12-10T22:10:27.596Z,14.82
2022-12-10T22:12:29.061Z,15.40
2022-12-10T22:14:30.609Z,15.00
2022-12-10T22:16:32.125Z,14.57
2022-12-10T22:18:33.637Z,16.27
2022-12-10T22:20:36.800Z,14.65
2022-12-10T22:22:38.370Z,14.50
2022-12-10T22:24:40.087Z,14.25
2022-12-10T22:26:41.633Z,14.30
2022-12-10T22:28:43.350Z,14.30
2022-12-10T22:30:44.900Z,13.82
2022-12-10T22:32:46.570Z,13.10
2022-12-10T22:34:48.114Z,13.65
2022-12-10T22:36:50.354Z,14.65
2022-12-10T22:38:51.915Z,13.85
2022-12-10T22:40:53.366Z,17.50
2022-12-10T22:43:10.218Z,15.38
2022-12-10T22:45:16.506Z,15.45
2022-12-10T22:47:17.959Z,14.32
2022-12-10T22:49:19.417Z,14.05
2022-12-10T22:51:20.951Z,13.90
2022-12-10T22:53:22.409Z,14.02
2022-12-10T22:55:23.890Z,13.40
2022-12-10T22:57:25.430Z,13.85
2022-12-10T22:59:28.107Z,13.95
2022-12-10T23:01:29.877Z,14.48
2022-12-10T23:03:31.942Z,12.43
2022-12-10T23:05:35.878Z,13.70
2022-12-10T23:07:37.507Z,14.13
2022-12-10T23:09:40.819Z,13.57
2022-12-10T23:12:02.254Z,13.77
2022-12-10T23:14:03.776Z,14.13
2022-12-10T23:16:07.901Z,13.32
2022-12-10T23:18:12.469Z,14.52
2022-12-10T23:20:14.381Z,14.13
2022-12-10T23:22:15.966Z,14.20
2022-12-10T23:24:17.462Z,14.02
2022-12-10T23:26:19.969Z,13.98
2022-12-10T23:28:21.662Z,13.40
2022-12-10T23:30:23.452Z,14.15
2022-12-10T23:32:24.945Z,14.05
2022-12-10T23:34:26.558Z,12.45
2022-12-10T23:36:28.035Z,14.13
2022-12-10T23:38:29.498Z,13.70
2022-12-10T23:40:30.946Z,13.00
2022-12-10T23:42:32.836Z,13.07
2022-12-10T23:44:34.283Z,13.35
2022-12-10T23:46:35.808Z,13.73
2022-12-10T23:48:37.593Z,13.57
2022-12-10T23:50:39.115Z,14.13
2022-12-10T23:52:40.583Z,13.82
2022-12-10T23:54:42.679Z,13.05
2022-12-10T23:56:44.140Z,12.80
2022-12-10T23:58:47.429Z,13.32
